sensor_id;sensor_type;location;lat;lon;timestamp;pressure;altitude;pressure_sealevel;temperature;humidity
60611;BME280;46439;51.164;13.572;2023-05-21T00:01:25;100329.58;;;17.26;100.00
60611;BME280;46439;51.164;13.572;2023-05-21T00:03:53;100324.03;;;17.24;100.00
60611;BME280;46439;51.164;13.572;2023-05-21T00:06:22;100320.80;;;17.23;100.00
60611;BME280;46439;51.164;13.572;2023-05-21T00:08:51;100319.23;;;17.20;100.00
60611;BME280;46439;51.164;13.572;2023-05-21T00:11:19;100323.45;;;17.18;100.00
60611;BME280;46439;51.164;13.572;2023-05-21T00:13:50;100316.11;;;17.16;100.00
60611;BME280;46439;51.164;13.572;2023-05-21T00:16:19;100314.58;;;17.14;100.00
60611;BME280;46439;51.164;13.572;2023-05-21T00:18:47;100314.36;;;17.12;100.00
60611;BME280;46439;51.164;13.572;2023-05-21T00:21:21;100309.59;;;17.06;100.00
60611;BME280;46439;51.164;13.572;2023-05-21T00:23:50;100309.17;;;16.99;100.00
60611;BME280;46439;51.164;13.572;2023-05-21T00:26:19;100307.57;;;16.89;100.00
60611;BME280;46439;51.164;13.572;2023-05-21T00:28:47;100306.77;;;16.85;100.00
60611;BME280;46439;51.164;13.572;2023-05-21T00:31:16;100302.14;;;16.80;100.00
60611;BME280;46439;51.164;13.572;2023-05-21T00:33:46;100300.33;;;16.79;100.00
60611;BME280;46439;51.164;13.572;2023-05-21T00:36:14;100299.73;;;16.75;100.00
60611;BME280;46439;51.164;13.572;2023-05-21T00:38:44;100296.73;;;16.69;100.00
60611;BME280;46439;51.164;13.572;2023-05-21T00:41:13;100294.74;;;16.65;100.00
60611;BME280;46439;51.164;13.572;2023-05-21T00:43:41;100292.88;;;16.61;100.00
60611;BME280;46439;51.164;13.572;2023-05-21T00:46:16;100286.66;;;16.56;100.00
60611;BME280;46439;51.164;13.572;2023-05-21T00:48:45;100279.40;;;16.53;100.00
60611;BME280;46439;51.164;13.572;2023-05-21T00:51:14;100275.97;;;16.53;100.00
60611;BME280;46439;51.164;13.572;2023-05-21T00:53:44;100272.88;;;16.55;100.00
60611;BME280;46439;51.164;13.572;2023-05-21T00:56:14;100270.06;;;16.55;100.00
60611;BME280;46439;51.164;13.572;2023-05-21T00:58:42;100265.58;;;16.57;100.00
60611;BME280;46439;51.164;13.572;2023-05-21T01:01:12;100264.73;;;16.57;100.00
60611;BME280;46439;51.164;13.572;2023-05-21T01:03:41;100263.05;;;16.56;100.00
60611;BME280;46439;51.164;13.572;2023-05-21T01:06:10;100259.20;;;16.55;100.00
60611;BME280;46439;51.164;13.572;2023-05-21T01:08:41;100259.84;;;16.53;100.00
60611;BME280;46439;51.164;13.572;2023-05-21T01:11:11;100259.05;;;16.48;100.00
60611;BME280;46439;51.164;13.572;2023-05-21T01:13:41;100254.17;;;16.41;100.00
60611;BME280;46439;51.164;13.572;2023-05-21T01:16:10;100256.78;;;16.38;100.00
60611;BME280;46439;51.164;13.572;2023-05-21T01:18:40;100256.30;;;16.38;100.00
60611;BME280;46439;51.164;13.572;2023-05-21T01:23:48;100256.35;;;16.33;100.00
60611;BME280;46439;51.164;13.572;2023-05-21T01:26:17;100256.73;;;16.33;100.00
60611;BME280;46439;51.164;13.572;2023-05-21T01:28:46;100254.42;;;16.27;100.00
60611;BME280;46439;51.164;13.572;2023-05-21T01:31:24;100250.35;;;16.20;100.00
60611;BME280;46439;51.164;13.572;2023-05-21T01:33:56;100250.98;;;16.17;100.00
60611;BME280;46439;51.164;13.572;2023-05-21T01:36:33;100245.82;;;16.17;100.00
60611;BME280;46439;51.164;13.572;2023-05-21T01:39:11;100242.73;;;16.16;100.00
60611;BME280;46439;51.164;13.572;2023-05-21T01:41:45;100243.43;;;16.12;100.00
60611;BME280;46439;51.164;13.572;2023-05-21T01:44:18;100242.05;;;16.07;100.00
60611;BME280;46439;51.164;13.572;2023-05-21T01:46:46;100239.48;;;16.10;100.00
60611;BME280;46439;51.164;13.572;2023-05-21T01:49:18;100244.91;;;16.13;100.00
60611;BME280;46439;51.164;13.572;2023-05-21T01:51:47;100243.93;;;16.15;100.00
60611;BME280;46439;51.164;13.572;2023-05-21T01:54:16;100241.17;;;16.15;100.00
60611;BME280;46439;51.164;13.572;2023-05-21T01:56:44;100241.23;;;16.18;100.00
60611;BME280;46439;51.164;13.572;2023-05-21T01:59:15;100241.64;;;16.20;100.00
60611;BME280;46439;51.164;13.572;2023-05-21T02:01:44;100241.86;;;16.24;100.00
60611;BME280;46439;51.164;13.572;2023-05-21T02:04:13;100238.66;;;16.23;100.00
60611;BME280;46439;51.164;13.572;2023-05-21T02:06:41;100238.66;;;16.23;100.00
60611;BME280;46439;51.164;13.572;2023-05-21T02:09:10;100238.30;;;16.24;100.00
60611;BME280;46439;51.164;13.572;2023-05-21T02:11:38;100237.23;;;16.20;100.00
60611;BME280;46439;51.164;13.572;2023-05-21T02:14:06;100238.04;;;16.17;100.00
60611;BME280;46439;51.164;13.572;2023-05-21T02:16:37;100237.61;;;16.20;100.00
60611;BME280;46439;51.164;13.572;2023-05-21T02:19:06;100236.27;;;16.23;100.00
60611;BME280;46439;51.164;13.572;2023-05-21T02:21:37;100234.43;;;16.21;100.00
60611;BME280;46439;51.164;13.572;2023-05-21T02:24:07;100237.33;;;16.18;100.00
60611;BME280;46439;51.164;13.572;2023-05-21T02:26:35;100237.52;;;16.14;100.00
60611;BME280;46439;51.164;13.572;2023-05-21T02:29:04;100236.30;;;16.13;100.00
60611;BME280;46439;51.164;13.572;2023-05-21T02:31:33;100236.02;;;16.14;100.00
60611;BME280;46439;51.164;13.572;2023-05-21T02:34:01;100234.80;;;16.11;100.00
60611;BME280;46439;51.164;13.572;2023-05-21T02:36:30;100233.00;;;16.09;100.00
60611;BME280;46439;51.164;13.572;2023-05-21T02:39:00;100234.00;;;16.08;100.00
60611;BME280;46439;51.164;13.572;2023-05-21T02:41:28;100230.61;;;16.14;100.00
60611;BME280;46439;51.164;13.572;2023-05-21T02:43:57;100234.98;;;16.18;100.00
60611;BME280;46439;51.164;13.572;2023-05-21T02:46:25;100233.23;;;16.19;100.00
60611;BME280;46439;51.164;13.572;2023-05-21T02:48:54;100229.58;;;16.18;100.00
60611;BME280;46439;51.164;13.572;2023-05-21T02:51:22;100227.23;;;16.18;100.00
60611;BME280;46439;51.164;13.572;2023-05-21T02:53:51;100228.23;;;16.18;100.00
60611;BME280;46439;51.164;13.572;2023-05-21T02:56:19;100225.89;;;16.19;100.00
60611;BME280;46439;51.164;13.572;2023-05-21T02:58:48;100225.84;;;16.20;100.00
60611;BME280;46439;51.164;13.572;2023-05-21T03:01:16;100225.59;;;16.19;100.00
60611;BME280;46439;51.164;13.572;2023-05-21T03:03:45;100227.98;;;16.19;100.00
60611;BME280;46439;51.164;13.572;2023-05-21T03:06:13;100224.95;;;16.16;100.00
60611;BME280;46439;51.164;13.572;2023-05-21T03:08:43;100224.11;;;16.12;100.00
60611;BME280;46439;51.164;13.572;2023-05-21T03:11:12;100220.68;;;16.10;100.00
60611;BME280;46439;51.164;13.572;2023-05-21T03:13:40;100219.98;;;16.10;100.00
60611;BME280;46439;51.164;13.572;2023-05-21T03:16:10;100219.38;;;16.06;100.00
60611;BME280;46439;51.164;13.572;2023-05-21T03:18:39;100220.17;;;16.04;100.00
60611;BME280;46439;51.164;13.572;2023-05-21T03:21:08;100217.56;;;16.01;100.00
60611;BME280;46439;51.164;13.572;2023-05-21T03:23:36;100219.00;;;16.00;100.00
60611;BME280;46439;51.164;13.572;2023-05-21T03:26:05;100219.01;;;15.99;100.00
60611;BME280;46439;51.164;13.572;2023-05-21T03:28:33;100220.08;;;15.98;100.00
60611;BME280;46439;51.164;13.572;2023-05-21T03:31:02;100219.70;;;15.97;100.00
60611;BME280;46439;51.164;13.572;2023-05-21T03:33:31;100222.31;;;15.99;100.00
60611;BME280;46439;51.164;13.572;2023-05-21T03:35:59;100222.52;;;16.00;100.00
60611;BME280;46439;51.164;13.572;2023-05-21T03:38:28;100219.59;;;15.99;100.00
60611;BME280;46439;51.164;13.572;2023-05-21T03:40:56;100220.75;;;15.94;100.00
60611;BME280;46439;51.164;13.572;2023-05-21T03:43:25;100220.34;;;15.91;100.00
60611;BME280;46439;51.164;13.572;2023-05-21T03:45:55;100217.17;;;15.86;100.00
60611;BME280;46439;51.164;13.572;2023-05-21T03:48:23;100222.23;;;15.81;100.00
60611;BME280;46439;51.164;13.572;2023-05-21T03:50:52;100220.27;;;15.79;100.00
60611;BME280;46439;51.164;13.572;2023-05-21T03:53:20;100219.73;;;15.82;100.00
60611;BME280;46439;51.164;13.572;2023-05-21T03:55:49;100220.66;;;15.86;100.00
60611;BME280;46439;51.164;13.572;2023-05-21T03:58:22;100224.15;;;15.89;100.00
60611;BME280;46439;51.164;13.572;2023-05-21T04:00:51;100226.73;;;15.92;100.00
60611;BME280;46439;51.164;13.572;2023-05-21T04:03:19;100225.45;;;15.93;100.00
60611;BME280;46439;51.164;13.572;2023-05-21T04:05:48;100226.77;;;15.95;100.00
60611;BME280;46439;51.164;13.572;2023-05-21T04:08:16;100228.63;;;15.99;100.00
60611;BME280;46439;51.164;13.572;2023-05-21T04:10:45;100221.38;;;16.01;100.00
60611;BME280;46439;51.164;13.572;2023-05-21T04:13:13;100225.16;;;16.02;100.00
60611;BME280;46439;51.164;13.572;2023-05-21T04:15:42;100223.95;;;16.04;100.00
60611;BME280;46439;51.164;13.572;2023-05-21T04:18:11;100226.64;;;16.07;100.00
60611;BME280;46439;51.164;13.572;2023-05-21T04:20:40;100230.23;;;16.08;100.00
60611;BME280;46439;51.164;13.572;2023-05-21T04:23:10;100231.11;;;16.09;100.00
60611;BME280;46439;51.164;13.572;2023-05-21T04:25:38;100229.56;;;16.12;100.00
60611;BME280;46439;51.164;13.572;2023-05-21T04:28:07;100227.55;;;16.12;100.00
60611;BME280;46439;51.164;13.572;2023-05-21T04:30:36;100222.48;;;16.14;100.00
60611;BME280;46439;51.164;13.572;2023-05-21T04:33:04;100228.06;;;16.18;100.00
60611;BME280;46439;51.164;13.572;2023-05-21T04:35:32;100223.46;;;16.20;100.00
60611;BME280;46439;51.164;13.572;2023-05-21T04:38:02;100229.73;;;16.15;100.00
60611;BME280;46439;51.164;13.572;2023-05-21T04:40:32;100231.11;;;16.10;100.00
60611;BME280;46439;51.164;13.572;2023-05-21T04:43:01;100232.63;;;16.09;100.00
60611;BME280;46439;51.164;13.572;2023-05-21T04:45:30;100231.40;;;16.08;100.00
60611;BME280;46439;51.164;13.572;2023-05-21T04:47:58;100236.14;;;16.08;100.00
60611;BME280;46439;51.164;13.572;2023-05-21T04:50:27;100234.72;;;16.11;100.00
60611;BME280;46439;51.164;13.572;2023-05-21T04:52:58;100235.05;;;16.19;100.00
60611;BME280;46439;51.164;13.572;2023-05-21T04:55:26;100234.48;;;16.28;100.00
60611;BME280;46439;51.164;13.572;2023-05-21T04:57:56;100233.63;;;16.36;100.00
60611;BME280;46439;51.164;13.572;2023-05-21T05:00:24;100231.96;;;16.43;100.00
60611;BME280;46439;51.164;13.572;2023-05-21T05:02:53;100232.25;;;16.51;100.00
60611;BME280;46439;51.164;13.572;2023-05-21T05:05:21;100230.06;;;16.58;100.00
60611;BME280;46439;51.164;13.572;2023-05-21T05:07:50;100230.88;;;16.69;100.00
60611;BME280;46439;51.164;13.572;2023-05-21T05:10:18;100224.16;;;16.80;100.00
60611;BME280;46439;51.164;13.572;2023-05-21T05:12:47;100223.20;;;16.88;100.00
60611;BME280;46439;51.164;13.572;2023-05-21T05:15:15;100221.55;;;16.96;100.00
60611;BME280;46439;51.164;13.572;2023-05-21T05:17:44;100221.06;;;17.03;100.00
60611;BME280;46439;51.164;13.572;2023-05-21T05:20:15;100216.38;;;17.13;100.00
60611;BME280;46439;51.164;13.572;2023-05-21T05:22:43;100216.13;;;17.21;100.00
60611;BME280;46439;51.164;13.572;2023-05-21T05:25:12;100215.77;;;17.24;100.00
60611;BME280;46439;51.164;13.572;2023-05-21T05:27:40;100212.45;;;17.26;100.00
60611;BME280;46439;51.164;13.572;2023-05-21T05:30:10;100212.95;;;17.38;100.00
60611;BME280;46439;51.164;13.572;2023-05-21T05:32:39;100213.58;;;17.56;100.00
60611;BME280;46439;51.164;13.572;2023-05-21T05:35:09;100209.48;;;17.67;100.00
60611;BME280;46439;51.164;13.572;2023-05-21T05:37:38;100205.93;;;17.78;100.00
60611;BME280;46439;51.164;13.572;2023-05-21T05:40:08;100204.23;;;17.89;100.00
60611;BME280;46439;51.164;13.572;2023-05-21T05:42:36;100204.84;;;17.99;100.00
60611;BME280;46439;51.164;13.572;2023-05-21T05:45:06;100203.33;;;18.11;100.00
60611;BME280;46439;51.164;13.572;2023-05-21T05:47:34;100201.83;;;18.24;100.00
60611;BME280;46439;51.164;13.572;2023-05-21T05:50:03;100198.01;;;18.38;100.00
60611;BME280;46439;51.164;13.572;2023-05-21T05:52:32;100196.23;;;18.54;100.00
60611;BME280;46439;51.164;13.572;2023-05-21T05:55:01;100198.67;;;18.69;100.00
60611;BME280;46439;51.164;13.572;2023-05-21T05:57:29;100194.41;;;18.86;100.00
60611;BME280;46439;51.164;13.572;2023-05-21T05:59:58;100189.14;;;19.01;100.00
60611;BME280;46439;51.164;13.572;2023-05-21T06:02:26;100193.42;;;19.16;100.00
60611;BME280;46439;51.164;13.572;2023-05-21T06:04:55;100193.86;;;19.28;100.00
60611;BME280;46439;51.164;13.572;2023-05-21T06:07:23;100195.73;;;19.40;100.00
60611;BME280;46439;51.164;13.572;2023-05-21T06:09:52;100196.70;;;19.51;100.00
60611;BME280;46439;51.164;13.572;2023-05-21T06:12:20;100198.02;;;19.62;100.00
60611;BME280;46439;51.164;13.572;2023-05-21T06:14:49;100195.27;;;19.65;100.00
60611;BME280;46439;51.164;13.572;2023-05-21T06:17:18;100197.80;;;19.77;100.00
60611;BME280;46439;51.164;13.572;2023-05-21T06:19:46;100200.98;;;19.90;100.00
60611;BME280;46439;51.164;13.572;2023-05-21T06:22:15;100198.39;;;19.97;100.00
60611;BME280;46439;51.164;13.572;2023-05-21T06:24:43;100198.22;;;19.97;100.00
60611;BME280;46439;51.164;13.572;2023-05-21T06:27:12;100195.84;;;20.20;100.00
60611;BME280;46439;51.164;13.572;2023-05-21T06:29:40;100196.15;;;20.36;100.00
60611;BME280;46439;51.164;13.572;2023-05-21T06:32:09;100194.67;;;20.47;100.00
60611;BME280;46439;51.164;13.572;2023-05-21T06:34:38;100192.77;;;20.60;100.00
60611;BME280;46439;51.164;13.572;2023-05-21T06:37:06;100192.20;;;20.70;100.00
60611;BME280;46439;51.164;13.572;2023-05-21T06:39:35;100195.15;;;20.74;100.00
60611;BME280;46439;51.164;13.572;2023-05-21T06:42:04;100191.77;;;20.87;100.00
60611;BME280;46439;51.164;13.572;2023-05-21T06:44:32;100192.38;;;21.06;100.00
60611;BME280;46439;51.164;13.572;2023-05-21T06:47:01;100191.08;;;21.14;100.00
60611;BME280;46439;51.164;13.572;2023-05-21T06:49:29;100192.97;;;21.27;100.00
60611;BME280;46439;51.164;13.572;2023-05-21T06:51:57;100191.56;;;21.27;100.00
60611;BME280;46439;51.164;13.572;2023-05-21T06:54:26;100194.05;;;21.23;100.00
60611;BME280;46439;51.164;13.572;2023-05-21T06:56:54;100193.09;;;21.35;100.00
60611;BME280;46439;51.164;13.572;2023-05-21T06:59:23;100191.89;;;21.46;100.00
60611;BME280;46439;51.164;13.572;2023-05-21T07:01:51;100189.77;;;21.53;100.00
60611;BME280;46439;51.164;13.572;2023-05-21T07:04:20;100190.89;;;21.54;100.00
60611;BME280;46439;51.164;13.572;2023-05-21T07:06:48;100185.35;;;21.60;100.00
60611;BME280;46439;51.164;13.572;2023-05-21T07:09:17;100187.16;;;21.69;100.00
60611;BME280;46439;51.164;13.572;2023-05-21T07:11:46;100190.32;;;21.70;100.00
60611;BME280;46439;51.164;13.572;2023-05-21T07:14:14;100183.96;;;21.71;100.00
60611;BME280;46439;51.164;13.572;2023-05-21T07:16:43;100189.27;;;21.75;100.00
60611;BME280;46439;51.164;13.572;2023-05-21T07:19:11;100189.07;;;21.80;100.00
60611;BME280;46439;51.164;13.572;2023-05-21T07:21:39;100191.55;;;21.77;100.00
60611;BME280;46439;51.164;13.572;2023-05-21T07:24:08;100194.20;;;21.90;100.00
60611;BME280;46439;51.164;13.572;2023-05-21T07:26:36;100192.44;;;21.93;100.00
60611;BME280;46439;51.164;13.572;2023-05-21T07:29:05;100186.44;;;21.93;100.00
60611;BME280;46439;51.164;13.572;2023-05-21T07:31:33;100189.65;;;21.95;100.00
60611;BME280;46439;51.164;13.572;2023-05-21T07:34:02;100186.55;;;21.97;100.00
60611;BME280;46439;51.164;13.572;2023-05-21T07:36:30;100190.23;;;21.99;100.00
60611;BME280;46439;51.164;13.572;2023-05-21T07:39:00;100189.88;;;22.01;100.00
60611;BME280;46439;51.164;13.572;2023-05-21T07:41:29;100186.23;;;22.03;100.00
60611;BME280;46439;51.164;13.572;2023-05-21T07:43:57;100184.85;;;22.06;100.00
60611;BME280;46439;51.164;13.572;2023-05-21T07:46:28;100186.01;;;22.09;100.00
60611;BME280;46439;51.164;13.572;2023-05-21T07:48:56;100186.77;;;22.15;100.00
60611;BME280;46439;51.164;13.572;2023-05-21T07:51:25;100189.67;;;22.18;100.00
60611;BME280;46439;51.164;13.572;2023-05-21T07:53:54;100190.59;;;22.20;100.00
60611;BME280;46439;51.164;13.572;2023-05-21T07:56:23;100187.80;;;22.22;100.00
60611;BME280;46439;51.164;13.572;2023-05-21T07:58:52;100189.01;;;22.27;100.00
60611;BME280;46439;51.164;13.572;2023-05-21T08:01:21;100186.92;;;22.34;100.00
60611;BME280;46439;51.164;13.572;2023-05-21T08:03:49;100190.41;;;22.42;100.00
60611;BME280;46439;51.164;13.572;2023-05-21T08:06:18;100188.60;;;22.50;100.00
60611;BME280;46439;51.164;13.572;2023-05-21T08:08:47;100189.35;;;22.60;100.00
60611;BME280;46439;51.164;13.572;2023-05-21T08:11:15;100187.19;;;22.69;100.00
60611;BME280;46439;51.164;13.572;2023-05-21T08:13:45;100186.61;;;22.80;100.00
60611;BME280;46439;51.164;13.572;2023-05-21T08:16:14;100186.02;;;22.90;100.00
60611;BME280;46439;51.164;13.572;2023-05-21T08:18:42;100186.59;;;23.00;100.00
60611;BME280;46439;51.164;13.572;2023-05-21T08:21:11;100183.88;;;23.02;100.00
60611;BME280;46439;51.164;13.572;2023-05-21T08:23:39;100185.60;;;23.14;100.00
60611;BME280;46439;51.164;13.572;2023-05-21T08:26:08;100189.77;;;23.21;100.00
60611;BME280;46439;51.164;13.572;2023-05-21T08:28:36;100189.34;;;23.32;100.00
60611;BME280;46439;51.164;13.572;2023-05-21T08:31:05;100185.56;;;23.49;100.00
60611;BME280;46439;51.164;13.572;2023-05-21T08:33:35;100188.45;;;23.61;100.00
60611;BME280;46439;51.164;13.572;2023-05-21T08:36:07;100183.61;;;23.74;100.00
60611;BME280;46439;51.164;13.572;2023-05-21T08:38:36;100185.48;;;23.87;100.00
60611;BME280;46439;51.164;13.572;2023-05-21T08:41:07;100180.94;;;23.96;100.00
60611;BME280;46439;51.164;13.572;2023-05-21T08:43:37;100182.48;;;24.10;100.00
60611;BME280;46439;51.164;13.572;2023-05-21T08:46:07;100179.60;;;24.21;100.00
60611;BME280;46439;51.164;13.572;2023-05-21T08:48:37;100180.23;;;24.30;100.00
60611;BME280;46439;51.164;13.572;2023-05-21T08:51:06;100181.52;;;24.42;100.00
60611;BME280;46439;51.164;13.572;2023-05-21T08:53:35;100178.95;;;24.52;100.00
60611;BME280;46439;51.164;13.572;2023-05-21T08:56:04;100176.38;;;24.62;100.00
60611;BME280;46439;51.164;13.572;2023-05-21T08:58:34;100178.23;;;24.76;100.00
60611;BME280;46439;51.164;13.572;2023-05-21T09:01:04;100175.98;;;24.89;100.00
60611;BME280;46439;51.164;13.572;2023-05-21T09:03:33;100175.64;;;24.99;100.00
60611;BME280;46439;51.164;13.572;2023-05-21T09:06:07;100174.54;;;25.15;100.00
60611;BME280;46439;51.164;13.572;2023-05-21T09:08:42;100168.99;;;25.30;100.00
60611;BME280;46439;51.164;13.572;2023-05-21T09:11:11;100164.30;;;25.35;100.00
60611;BME280;46439;51.164;13.572;2023-05-21T09:13:40;100164.09;;;25.52;100.00
60611;BME280;46439;51.164;13.572;2023-05-21T09:16:10;100163.72;;;25.68;100.00
60611;BME280;46439;51.164;13.572;2023-05-21T09:18:38;100162.74;;;25.83;100.00
60611;BME280;46439;51.164;13.572;2023-05-21T09:21:24;100164.63;;;25.88;100.00
60611;BME280;46439;51.164;13.572;2023-05-21T09:23:57;100158.79;;;26.02;100.00
60611;BME280;46439;51.164;13.572;2023-05-21T09:26:26;100155.70;;;26.09;100.00
60611;BME280;46439;51.164;13.572;2023-05-21T09:28:58;100154.81;;;26.16;100.00
60611;BME280;46439;51.164;13.572;2023-05-21T09:31:27;100154.90;;;26.31;100.00
60611;BME280;46439;51.164;13.572;2023-05-21T09:33:56;100154.79;;;26.41;100.00
60611;BME280;46439;51.164;13.572;2023-05-21T09:36:25;100152.23;;;26.45;100.00
60611;BME280;46439;51.164;13.572;2023-05-21T09:38:54;100152.27;;;26.59;100.00
60611;BME280;46439;51.164;13.572;2023-05-21T09:41:31;100146.66;;;26.68;100.00
60611;BME280;46439;51.164;13.572;2023-05-21T09:44:04;100143.46;;;26.81;100.00
60611;BME280;46439;51.164;13.572;2023-05-21T09:46:39;100141.98;;;26.94;100.00
60611;BME280;46439;51.164;13.572;2023-05-21T09:49:23;100143.99;;;27.02;100.00
60611;BME280;46439;51.164;13.572;2023-05-21T09:51:55;100138.41;;;27.11;100.00
60611;BME280;46439;51.164;13.572;2023-05-21T09:54:25;100140.17;;;27.26;100.00
60611;BME280;46439;51.164;13.572;2023-05-21T09:56:58;100139.59;;;27.34;100.00
60611;BME280;46439;51.164;13.572;2023-05-21T09:59:37;100139.36;;;27.36;100.00
60611;BME280;46439;51.164;13.572;2023-05-21T10:02:16;100140.15;;;27.52;100.00
60611;BME280;46439;51.164;13.572;2023-05-21T10:04:48;100134.17;;;27.81;100.00
60611;BME280;46439;51.164;13.572;2023-05-21T10:07:19;100134.96;;;27.97;100.00
60611;BME280;46439;51.164;13.572;2023-05-21T10:09:54;100134.80;;;28.02;100.00
60611;BME280;46439;51.164;13.572;2023-05-21T10:12:24;100133.23;;;27.98;100.00
60611;BME280;46439;51.164;13.572;2023-05-21T10:15:00;100130.56;;;28.11;100.00
60611;BME280;46439;51.164;13.572;2023-05-21T10:17:31;100127.45;;;28.22;100.00
60611;BME280;46439;51.164;13.572;2023-05-21T10:20:00;100129.00;;;28.34;100.00
60611;BME280;46439;51.164;13.572;2023-05-21T10:22:29;100126.19;;;28.43;100.00
60611;BME280;46439;51.164;13.572;2023-05-21T10:24:59;100123.40;;;28.49;100.00
60611;BME280;46439;51.164;13.572;2023-05-21T10:27:29;100124.52;;;28.48;100.00
60611;BME280;46439;51.164;13.572;2023-05-21T10:29:59;100126.19;;;28.55;100.00
60611;BME280;46439;51.164;13.572;2023-05-21T10:32:29;100125.09;;;28.60;100.00
60611;BME280;46439;51.164;13.572;2023-05-21T10:34:58;100123.38;;;28.55;100.00
60611;BME280;46439;51.164;13.572;2023-05-21T10:37:27;100124.23;;;28.69;100.00
60611;BME280;46439;51.164;13.572;2023-05-21T10:39:56;100127.33;;;28.73;100.00
60611;BME280;46439;51.164;13.572;2023-05-21T10:42:50;100127.29;;;28.77;100.00
60611;BME280;46439;51.164;13.572;2023-05-21T10:45:35;100125.89;;;28.74;100.00
60611;BME280;46439;51.164;13.572;2023-05-21T10:48:36;100125.65;;;28.70;100.00
60611;BME280;46439;51.164;13.572;2023-05-21T10:51:21;100123.70;;;28.49;100.00
60611;BME280;46439;51.164;13.572;2023-05-21T10:54:15;100124.27;;;28.34;100.00
60611;BME280;46439;51.164;13.572;2023-05-21T10:56:53;100125.88;;;28.36;100.00
60611;BME280;46439;51.164;13.572;2023-05-21T10:59:35;100126.23;;;28.37;100.00
60611;BME280;46439;51.164;13.572;2023-05-21T11:02:07;100123.73;;;28.45;100.00
60611;BME280;46439;51.164;13.572;2023-05-21T11:04:37;100124.29;;;28.35;100.00
60611;BME280;46439;51.164;13.572;2023-05-21T11:07:09;100122.58;;;28.38;100.00
60611;BME280;46439;51.164;13.572;2023-05-21T11:09:38;100127.23;;;28.38;100.00
60611;BME280;46439;51.164;13.572;2023-05-21T11:12:08;100124.36;;;28.26;100.00
60611;BME280;46439;51.164;13.572;2023-05-21T11:14:38;100118.23;;;28.22;100.00
60611;BME280;46439;51.164;13.572;2023-05-21T11:17:14;100114.39;;;28.24;100.00
60611;BME280;46439;51.164;13.572;2023-05-21T11:19:43;100115.77;;;28.25;100.00
60611;BME280;46439;51.164;13.572;2023-05-21T11:22:24;100116.39;;;28.31;100.00
60611;BME280;46439;51.164;13.572;2023-05-21T11:24:54;100116.73;;;28.25;100.00
60611;BME280;46439;51.164;13.572;2023-05-21T11:27:34;100117.86;;;28.28;100.00
60611;BME280;46439;51.164;13.572;2023-05-21T11:30:06;100117.40;;;28.34;100.00
60611;BME280;46439;51.164;13.572;2023-05-21T11:32:39;100112.80;;;28.39;100.00
60611;BME280;46439;51.164;13.572;2023-05-21T11:35:28;100113.42;;;28.31;100.00
60611;BME280;46439;51.164;13.572;2023-05-21T11:37:57;100113.52;;;28.50;100.00
60611;BME280;46439;51.164;13.572;2023-05-21T11:40:26;100110.16;;;28.73;100.00
60611;BME280;46439;51.164;13.572;2023-05-21T11:42:57;100105.00;;;28.99;100.00
60611;BME280;46439;51.164;13.572;2023-05-21T11:45:28;100103.39;;;29.08;100.00
60611;BME280;46439;51.164;13.572;2023-05-21T11:47:58;100102.98;;;29.34;100.00
60611;BME280;46439;51.164;13.572;2023-05-21T11:50:27;100099.75;;;29.42;100.00
60611;BME280;46439;51.164;13.572;2023-05-21T11:52:57;100099.62;;;29.65;100.00
60611;BME280;46439;51.164;13.572;2023-05-21T11:55:27;100095.38;;;29.66;100.00
60611;BME280;46439;51.164;13.572;2023-05-21T11:57:56;100091.02;;;29.72;100.00
60611;BME280;46439;51.164;13.572;2023-05-21T12:00:25;100088.29;;;29.89;100.00
60611;BME280;46439;51.164;13.572;2023-05-21T12:02:54;100093.02;;;30.05;100.00
60611;BME280;46439;51.164;13.572;2023-05-21T12:05:23;100088.52;;;30.04;100.00
60611;BME280;46439;51.164;13.572;2023-05-21T12:07:54;100087.10;;;30.02;100.00
60611;BME280;46439;51.164;13.572;2023-05-21T12:10:23;100087.75;;;30.13;100.00
60611;BME280;46439;51.164;13.572;2023-05-21T12:12:52;100085.05;;;30.06;100.00
60611;BME280;46439;51.164;13.572;2023-05-21T12:15:21;100085.86;;;30.34;100.00
60611;BME280;46439;51.164;13.572;2023-05-21T12:17:51;100088.33;;;30.37;100.00
60611;BME280;46439;51.164;13.572;2023-05-21T12:20:20;100093.52;;;30.45;100.00
60611;BME280;46439;51.164;13.572;2023-05-21T12:22:50;100091.13;;;30.32;100.00
60611;BME280;46439;51.164;13.572;2023-05-21T12:25:19;100095.27;;;30.28;100.00
60611;BME280;46439;51.164;13.572;2023-05-21T12:27:49;100099.85;;;30.18;100.00
60611;BME280;46439;51.164;13.572;2023-05-21T12:30:25;100097.79;;;30.21;100.00
60611;BME280;46439;51.164;13.572;2023-05-21T12:32:56;100098.98;;;30.24;100.00
60611;BME280;46439;51.164;13.572;2023-05-21T12:35:23;100100.48;;;30.14;100.00
60611;BME280;46439;51.164;13.572;2023-05-21T12:37:52;100096.88;;;29.88;100.00
60611;BME280;46439;51.164;13.572;2023-05-21T12:40:20;100097.76;;;29.98;100.00
60611;BME280;46439;51.164;13.572;2023-05-21T12:42:50;100092.79;;;29.83;100.00
60611;BME280;46439;51.164;13.572;2023-05-21T12:45:18;100099.63;;;29.83;100.00
60611;BME280;46439;51.164;13.572;2023-05-21T12:47:50;100098.83;;;30.07;100.00